sensor_id;sensor_type;location;lat;lon;timestamp;temperature;humidity
58809;DHT22;44579;51.672;7.834;2023-09-19T00:00:44;18.20;77.60
58809;DHT22;44579;51.672;7.834;2023-09-19T00:03:16;18.20;77.70
58809;DHT22;44579;51.672;7.834;2023-09-19T00:05:44;18.20;77.80
58809;DHT22;44579;51.672;7.834;2023-09-19T00:08:13;18.30;77.70
58809;DHT22;44579;51.672;7.834;2023-09-19T00:10:41;18.30;77.50
58809;DHT22;44579;51.672;7.834;2023-09-19T00:13:09;18.30;77.50
58809;DHT22;44579;51.672;7.834;2023-09-19T00:15:42;18.30;77.50
58809;DHT22;44579;51.672;7.834;2023-09-19T00:18:09;18.30;77.60
58809;DHT22;44579;51.672;7.834;2023-09-19T00:20:37;18.40;77.60
58809;DHT22;44579;51.672;7.834;2023-09-19T00:23:05;18.30;77.60
58809;DHT22;44579;51.672;7.834;2023-09-19T00:25:39;18.30;77.60
58809;DHT22;44579;51.672;7.834;2023-09-19T00:28:07;18.30;77.80
58809;DHT22;44579;51.672;7.834;2023-09-19T00:30:35;18.30;77.70
58809;DHT22;44579;51.672;7.834;2023-09-19T00:33:02;18.30;77.80
58809;DHT22;44579;51.672;7.834;2023-09-19T00:35:33;18.30;77.90
58809;DHT22;44579;51.672;7.834;2023-09-19T00:38:00;18.20;78.00
58809;DHT22;44579;51.672;7.834;2023-09-19T00:40:29;18.20;78.00
58809;DHT22;44579;51.672;7.834;2023-09-19T00:43:00;18.20;78.00
58809;DHT22;44579;51.672;7.834;2023-09-19T00:45:27;18.20;78.10
58809;DHT22;44579;51.672;7.834;2023-09-19T00:47:59;18.10;78.10
58809;DHT22;44579;51.672;7.834;2023-09-19T00:50:30;18.00;78.10
58809;DHT22;44579;51.672;7.834;2023-09-19T00:52:59;18.00;78.20
58809;DHT22;44579;51.672;7.834;2023-09-19T00:55:29;18.00;78.30
58809;DHT22;44579;51.672;7.834;2023-09-19T00:57:57;17.90;78.20
58809;DHT22;44579;51.672;7.834;2023-09-19T01:00:24;17.80;78.20
58809;DHT22;44579;51.672;7.834;2023-09-19T01:02:51;17.80;78.40
58809;DHT22;44579;51.672;7.834;2023-09-19T01:05:19;17.70;78.30
58809;DHT22;44579;51.672;7.834;2023-09-19T01:07:46;17.70;78.20
58809;DHT22;44579;51.672;7.834;2023-09-19T01:10:17;17.70;78.80
58809;DHT22;44579;51.672;7.834;2023-09-19T01:13:21;17.60;78.20
58809;DHT22;44579;51.672;7.834;2023-09-19T01:15:59;17.60;78.30
58809;DHT22;44579;51.672;7.834;2023-09-19T01:18:38;17.60;78.30
58809;DHT22;44579;51.672;7.834;2023-09-19T01:21:29;17.60;78.30
58809;DHT22;44579;51.672;7.834;2023-09-19T01:30:13;17.70;78.30
58809;DHT22;44579;51.672;7.834;2023-09-19T01:32:40;17.60;78.30
58809;DHT22;44579;51.672;7.834;2023-09-19T01:35:08;17.60;78.20
58809;DHT22;44579;51.672;7.834;2023-09-19T01:37:39;17.70;78.20
58809;DHT22;44579;51.672;7.834;2023-09-19T01:40:17;17.70;78.10
58809;DHT22;44579;51.672;7.834;2023-09-19T01:43:17;17.70;78.10
58809;DHT22;44579;51.672;7.834;2023-09-19T01:46:03;17.70;78.10
58809;DHT22;44579;51.672;7.834;2023-09-19T01:51:09;17.70;78.30
58809;DHT22;44579;51.672;7.834;2023-09-19T01:53:45;17.70;78.40
58809;DHT22;44579;51.672;7.834;2023-09-19T01:56:34;17.60;78.30
58809;DHT22;44579;51.672;7.834;2023-09-19T01:59:10;17.60;78.30
58809;DHT22;44579;51.672;7.834;2023-09-19T02:01:39;17.60;78.30
58809;DHT22;44579;51.672;7.834;2023-09-19T02:04:07;17.70;78.40
58809;DHT22;44579;51.672;7.834;2023-09-19T02:06:34;17.70;78.20
58809;DHT22;44579;51.672;7.834;2023-09-19T02:09:01;17.70;78.30
58809;DHT22;44579;51.672;7.834;2023-09-19T02:11:29;17.70;78.30
58809;DHT22;44579;51.672;7.834;2023-09-19T02:13:56;17.60;78.30
58809;DHT22;44579;51.672;7.834;2023-09-19T02:16:25;17.50;78.30
58809;DHT22;44579;51.672;7.834;2023-09-19T02:18:52;17.50;78.40
58809;DHT22;44579;51.672;7.834;2023-09-19T02:21:19;17.40;78.50
58809;DHT22;44579;51.672;7.834;2023-09-19T02:23:48;17.40;78.50
58809;DHT22;44579;51.672;7.834;2023-09-19T02:26:15;17.20;78.50
58809;DHT22;44579;51.672;7.834;2023-09-19T02:28:43;17.10;78.60
58809;DHT22;44579;51.672;7.834;2023-09-19T02:31:10;17.00;78.80
58809;DHT22;44579;51.672;7.834;2023-09-19T02:33:38;16.90;78.80
58809;DHT22;44579;51.672;7.834;2023-09-19T02:36:06;16.90;78.70
58809;DHT22;44579;51.672;7.834;2023-09-19T02:38:34;16.90;78.80
58809;DHT22;44579;51.672;7.834;2023-09-19T02:41:01;16.80;78.90
58809;DHT22;44579;51.672;7.834;2023-09-19T02:43:28;16.80;79.00
58809;DHT22;44579;51.672;7.834;2023-09-19T02:45:55;16.70;79.00
58809;DHT22;44579;51.672;7.834;2023-09-19T02:48:23;16.70;79.10
58809;DHT22;44579;51.672;7.834;2023-09-19T02:50:52;16.60;79.30
58809;DHT22;44579;51.672;7.834;2023-09-19T02:53:19;16.60;79.10
58809;DHT22;44579;51.672;7.834;2023-09-19T02:55:47;16.60;79.00
58809;DHT22;44579;51.672;7.834;2023-09-19T02:58:14;16.60;79.00
58809;DHT22;44579;51.672;7.834;2023-09-19T03:00:43;16.50;79.00
58809;DHT22;44579;51.672;7.834;2023-09-19T03:03:13;16.50;79.10
58809;DHT22;44579;51.672;7.834;2023-09-19T03:05:45;16.50;79.20
58809;DHT22;44579;51.672;7.834;2023-09-19T03:08:18;16.50;79.20
58809;DHT22;44579;51.672;7.834;2023-09-19T03:10:47;16.40;79.20
58809;DHT22;44579;51.672;7.834;2023-09-19T03:13:15;16.40;79.10
58809;DHT22;44579;51.672;7.834;2023-09-19T03:15:45;16.40;79.10
58809;DHT22;44579;51.672;7.834;2023-09-19T03:18:26;16.30;79.00
58809;DHT22;44579;51.672;7.834;2023-09-19T03:20:56;16.40;79.10
58809;DHT22;44579;51.672;7.834;2023-09-19T03:23:24;16.30;79.00
58809;DHT22;44579;51.672;7.834;2023-09-19T03:25:50;16.30;79.20
58809;DHT22;44579;51.672;7.834;2023-09-19T03:28:19;16.30;79.20
58809;DHT22;44579;51.672;7.834;2023-09-19T03:31:01;16.30;79.10
58809;DHT22;44579;51.672;7.834;2023-09-19T03:33:30;16.30;78.90
58809;DHT22;44579;51.672;7.834;2023-09-19T03:36:01;16.30;79.00
58809;DHT22;44579;51.672;7.834;2023-09-19T03:38:31;16.30;79.00
58809;DHT22;44579;51.672;7.834;2023-09-19T03:40:59;16.30;79.00
58809;DHT22;44579;51.672;7.834;2023-09-19T03:43:27;16.30;79.00
58809;DHT22;44579;51.672;7.834;2023-09-19T03:45:54;16.30;79.00
58809;DHT22;44579;51.672;7.834;2023-09-19T03:48:23;16.30;78.90
58809;DHT22;44579;51.672;7.834;2023-09-19T03:50:51;16.20;79.10
58809;DHT22;44579;51.672;7.834;2023-09-19T03:53:19;16.20;79.10
58809;DHT22;44579;51.672;7.834;2023-09-19T03:55:46;16.30;79.10
58809;DHT22;44579;51.672;7.834;2023-09-19T03:58:14;16.20;79.80
58809;DHT22;44579;51.672;7.834;2023-09-19T04:00:41;16.20;78.90
58809;DHT22;44579;51.672;7.834;2023-09-19T04:03:08;16.20;78.90
58809;DHT22;44579;51.672;7.834;2023-09-19T04:05:35;16.20;78.90
58809;DHT22;44579;51.672;7.834;2023-09-19T04:08:02;16.20;78.90
58809;DHT22;44579;51.672;7.834;2023-09-19T04:10:29;16.00;79.00
58809;DHT22;44579;51.672;7.834;2023-09-19T04:12:56;16.00;79.10
58809;DHT22;44579;51.672;7.834;2023-09-19T04:15:24;16.00;79.10
58809;DHT22;44579;51.672;7.834;2023-09-19T04:17:54;16.00;79.00
58809;DHT22;44579;51.672;7.834;2023-09-19T04:20:21;16.00;79.00
58809;DHT22;44579;51.672;7.834;2023-09-19T04:22:50;16.00;79.00
58809;DHT22;44579;51.672;7.834;2023-09-19T04:25:17;16.00;79.00
58809;DHT22;44579;51.672;7.834;2023-09-19T04:27:45;15.90;79.00
58809;DHT22;44579;51.672;7.834;2023-09-19T04:30:13;15.90;79.00
58809;DHT22;44579;51.672;7.834;2023-09-19T04:32:41;15.90;79.00
58809;DHT22;44579;51.672;7.834;2023-09-19T04:35:10;15.80;78.90
58809;DHT22;44579;51.672;7.834;2023-09-19T04:37:40;15.80;78.90
58809;DHT22;44579;51.672;7.834;2023-09-19T04:40:09;15.90;78.90
58809;DHT22;44579;51.672;7.834;2023-09-19T04:42:43;15.80;78.90
58809;DHT22;44579;51.672;7.834;2023-09-19T04:45:10;15.80;78.80
58809;DHT22;44579;51.672;7.834;2023-09-19T04:47:38;15.80;78.90
58809;DHT22;44579;51.672;7.834;2023-09-19T04:50:09;15.70;78.90
58809;DHT22;44579;51.672;7.834;2023-09-19T04:52:40;15.70;79.00
58809;DHT22;44579;51.672;7.834;2023-09-19T04:55:18;15.70;78.90
58809;DHT22;44579;51.672;7.834;2023-09-19T04:57:50;15.70;78.70
58809;DHT22;44579;51.672;7.834;2023-09-19T05:00:19;15.70;78.70
58809;DHT22;44579;51.672;7.834;2023-09-19T05:02:56;15.70;78.90
58809;DHT22;44579;51.672;7.834;2023-09-19T05:05:24;15.70;78.90
58809;DHT22;44579;51.672;7.834;2023-09-19T05:07:53;15.60;78.80
58809;DHT22;44579;51.672;7.834;2023-09-19T05:10:23;15.70;78.80
58809;DHT22;44579;51.672;7.834;2023-09-19T05:12:53;15.70;78.80
58809;DHT22;44579;51.672;7.834;2023-09-19T05:15:20;15.70;78.80
58809;DHT22;44579;51.672;7.834;2023-09-19T05:17:48;15.60;78.70
58809;DHT22;44579;51.672;7.834;2023-09-19T05:20:21;15.70;78.70
58809;DHT22;44579;51.672;7.834;2023-09-19T05:23:00;15.70;78.90
58809;DHT22;44579;51.672;7.834;2023-09-19T05:25:32;15.70;78.70
58809;DHT22;44579;51.672;7.834;2023-09-19T05:27:59;15.70;78.70
58809;DHT22;44579;51.672;7.834;2023-09-19T05:30:30;15.70;78.60
58809;DHT22;44579;51.672;7.834;2023-09-19T05:32:57;15.70;78.70
58809;DHT22;44579;51.672;7.834;2023-09-19T05:35:25;15.70;78.50
58809;DHT22;44579;51.672;7.834;2023-09-19T05:37:53;15.80;78.50
58809;DHT22;44579;51.672;7.834;2023-09-19T05:40:21;15.80;78.70
58809;DHT22;44579;51.672;7.834;2023-09-19T05:42:48;15.80;78.60
58809;DHT22;44579;51.672;7.834;2023-09-19T05:45:17;15.80;78.50
58809;DHT22;44579;51.672;7.834;2023-09-19T05:47:51;15.80;78.50
58809;DHT22;44579;51.672;7.834;2023-09-19T05:50:22;15.80;78.50
58809;DHT22;44579;51.672;7.834;2023-09-19T05:52:53;15.90;78.40
58809;DHT22;44579;51.672;7.834;2023-09-19T05:55:20;15.90;78.40
58809;DHT22;44579;51.672;7.834;2023-09-19T05:57:51;15.90;78.40
58809;DHT22;44579;51.672;7.834;2023-09-19T06:00:22;16.00;78.40
58809;DHT22;44579;51.672;7.834;2023-09-19T06:02:54;16.00;78.30
58809;DHT22;44579;51.672;7.834;2023-09-19T06:05:22;16.00;78.30
58809;DHT22;44579;51.672;7.834;2023-09-19T06:07:49;16.00;78.40
58809;DHT22;44579;51.672;7.834;2023-09-19T06:10:18;16.10;78.50
58809;DHT22;44579;51.672;7.834;2023-09-19T06:12:45;16.10;78.40
58809;DHT22;44579;51.672;7.834;2023-09-19T06:15:14;16.10;78.40
58809;DHT22;44579;51.672;7.834;2023-09-19T06:17:53;16.20;78.40
58809;DHT22;44579;51.672;7.834;2023-09-19T06:20:24;16.20;78.40
58809;DHT22;44579;51.672;7.834;2023-09-19T06:22:52;16.20;78.40
58809;DHT22;44579;51.672;7.834;2023-09-19T06:25:19;16.30;78.60
58809;DHT22;44579;51.672;7.834;2023-09-19T06:27:56;16.30;78.50
58809;DHT22;44579;51.672;7.834;2023-09-19T06:30:24;16.30;78.80
58809;DHT22;44579;51.672;7.834;2023-09-19T06:32:58;16.20;78.80
58809;DHT22;44579;51.672;7.834;2023-09-19T06:35:25;16.30;79.00
58809;DHT22;44579;51.672;7.834;2023-09-19T06:37:53;16.30;78.90
58809;DHT22;44579;51.672;7.834;2023-09-19T06:40:20;16.30;78.80
58809;DHT22;44579;51.672;7.834;2023-09-19T06:42:51;16.30;78.80
58809;DHT22;44579;51.672;7.834;2023-09-19T06:45:20;16.40;78.80
58809;DHT22;44579;51.672;7.834;2023-09-19T06:47:50;16.40;78.80
58809;DHT22;44579;51.672;7.834;2023-09-19T06:50:20;16.50;78.80
58809;DHT22;44579;51.672;7.834;2023-09-19T06:52:52;16.50;78.90
58809;DHT22;44579;51.672;7.834;2023-09-19T06:55:22;16.50;78.90
58809;DHT22;44579;51.672;7.834;2023-09-19T06:57:52;16.60;78.90
58809;DHT22;44579;51.672;7.834;2023-09-19T07:00:27;16.60;78.80
58809;DHT22;44579;51.672;7.834;2023-09-19T07:03:01;16.70;78.80
58809;DHT22;44579;51.672;7.834;2023-09-19T07:05:31;16.70;78.80
58809;DHT22;44579;51.672;7.834;2023-09-19T07:08:08;16.70;79.10
58809;DHT22;44579;51.672;7.834;2023-09-19T07:10:38;16.70;79.20
58809;DHT22;44579;51.672;7.834;2023-09-19T07:13:08;16.80;79.20
58809;DHT22;44579;51.672;7.834;2023-09-19T07:15:39;16.80;79.50
58809;DHT22;44579;51.672;7.834;2023-09-19T07:18:09;16.80;79.50
58809;DHT22;44579;51.672;7.834;2023-09-19T07:20:38;16.90;79.60
58809;DHT22;44579;51.672;7.834;2023-09-19T07:23:08;16.90;79.40
58809;DHT22;44579;51.672;7.834;2023-09-19T07:25:35;17.00;79.40
58809;DHT22;44579;51.672;7.834;2023-09-19T07:28:05;17.00;79.40
58809;DHT22;44579;51.672;7.834;2023-09-19T07:30:36;17.00;79.40
58809;DHT22;44579;51.672;7.834;2023-09-19T07:33:06;17.10;79.30
58809;DHT22;44579;51.672;7.834;2023-09-19T07:35:33;17.20;79.40
58809;DHT22;44579;51.672;7.834;2023-09-19T07:38:00;17.30;79.20
58809;DHT22;44579;51.672;7.834;2023-09-19T07:40:28;17.30;79.00
58809;DHT22;44579;51.672;7.834;2023-09-19T07:42:59;17.30;79.00
58809;DHT22;44579;51.672;7.834;2023-09-19T07:45:29;17.30;79.10
58809;DHT22;44579;51.672;7.834;2023-09-19T07:47:57;17.30;79.20
58809;DHT22;44579;51.672;7.834;2023-09-19T07:50:26;17.40;79.30
58809;DHT22;44579;51.672;7.834;2023-09-19T07:52:54;17.40;79.20
58809;DHT22;44579;51.672;7.834;2023-09-19T07:55:23;17.40;79.30
58809;DHT22;44579;51.672;7.834;2023-09-19T07:57:52;17.50;79.20
58809;DHT22;44579;51.672;7.834;2023-09-19T08:00:19;17.60;79.20
58809;DHT22;44579;51.672;7.834;2023-09-19T08:02:50;17.60;79.30
58809;DHT22;44579;51.672;7.834;2023-09-19T08:05:34;17.60;79.30
58809;DHT22;44579;51.672;7.834;2023-09-19T08:08:03;17.70;79.30
58809;DHT22;44579;51.672;7.834;2023-09-19T08:10:31;17.80;79.40
58809;DHT22;44579;51.672;7.834;2023-09-19T08:13:02;17.80;79.30
58809;DHT22;44579;51.672;7.834;2023-09-19T08:15:29;17.90;79.40
58809;DHT22;44579;51.672;7.834;2023-09-19T08:17:57;17.90;79.60
58809;DHT22;44579;51.672;7.834;2023-09-19T08:20:24;17.90;79.50
58809;DHT22;44579;51.672;7.834;2023-09-19T08:22:52;17.90;79.40
58809;DHT22;44579;51.672;7.834;2023-09-19T08:25:24;17.90;79.50
58809;DHT22;44579;51.672;7.834;2023-09-19T08:27:54;17.90;79.50
58809;DHT22;44579;51.672;7.834;2023-09-19T08:30:25;18.00;79.40
58809;DHT22;44579;51.672;7.834;2023-09-19T08:32:58;18.00;79.50
58809;DHT22;44579;51.672;7.834;2023-09-19T08:35:26;18.10;79.40
58809;DHT22;44579;51.672;7.834;2023-09-19T08:38:00;18.10;79.30
58809;DHT22;44579;51.672;7.834;2023-09-19T08:40:46;18.30;79.10
58809;DHT22;44579;51.672;7.834;2023-09-19T08:43:13;18.30;78.90
58809;DHT22;44579;51.672;7.834;2023-09-19T08:45:41;18.30;79.00
58809;DHT22;44579;51.672;7.834;2023-09-19T08:48:24;18.30;79.30
58809;DHT22;44579;51.672;7.834;2023-09-19T08:50:56;18.40;79.20
58809;DHT22;44579;51.672;7.834;2023-09-19T08:54:06;18.40;79.30
58809;DHT22;44579;51.672;7.834;2023-09-19T08:56:37;18.40;79.30
58809;DHT22;44579;51.672;7.834;2023-09-19T08:59:13;18.50;79.30
58809;DHT22;44579;51.672;7.834;2023-09-19T09:01:55;18.50;79.40
58809;DHT22;44579;51.672;7.834;2023-09-19T09:04:23;18.50;78.90
58809;DHT22;44579;51.672;7.834;2023-09-19T09:06:53;18.50;78.80
58809;DHT22;44579;51.672;7.834;2023-09-19T09:09:21;18.50;79.00
58809;DHT22;44579;51.672;7.834;2023-09-19T09:11:49;18.40;78.90
58809;DHT22;44579;51.672;7.834;2023-09-19T09:14:22;18.50;78.90
58809;DHT22;44579;51.672;7.834;2023-09-19T09:16:51;18.50;78.80
58809;DHT22;44579;51.672;7.834;2023-09-19T09:19:19;18.50;79.20
58809;DHT22;44579;51.672;7.834;2023-09-19T09:21:51;18.50;79.80
58809;DHT22;44579;51.672;7.834;2023-09-19T09:24:31;18.50;79.70
58809;DHT22;44579;51.672;7.834;2023-09-19T09:27:06;18.50;79.30
58809;DHT22;44579;51.672;7.834;2023-09-19T09:30:01;18.60;79.50
58809;DHT22;44579;51.672;7.834;2023-09-19T09:32:29;18.60;79.30
58809;DHT22;44579;51.672;7.834;2023-09-19T09:35:00;18.70;79.10
58809;DHT22;44579;51.672;7.834;2023-09-19T09:37:28;18.70;79.10
58809;DHT22;44579;51.672;7.834;2023-09-19T09:40:05;18.80;79.00
58809;DHT22;44579;51.672;7.834;2023-09-19T09:42:41;18.80;79.00
58809;DHT22;44579;51.672;7.834;2023-09-19T09:45:22;18.90;79.00
58809;DHT22;44579;51.672;7.834;2023-09-19T09:48:04;19.00;78.70
58809;DHT22;44579;51.672;7.834;2023-09-19T09:50:48;19.00;78.50
58809;DHT22;44579;51.672;7.834;2023-09-19T09:53:23;19.10;78.20
58809;DHT22;44579;51.672;7.834;2023-09-19T09:56:05;19.10;78.40
58809;DHT22;44579;51.672;7.834;2023-09-19T09:58:38;19.20;78.50
58809;DHT22;44579;51.672;7.834;2023-09-19T10:01:16;19.20;78.10
58809;DHT22;44579;51.672;7.834;2023-09-19T10:03:44;19.30;78.10
58809;DHT22;44579;51.672;7.834;2023-09-19T10:06:16;19.40;78.00
58809;DHT22;44579;51.672;7.834;2023-09-19T10:09:04;19.50;78.00
58809;DHT22;44579;51.672;7.834;2023-09-19T10:12:05;19.50;77.90
58809;DHT22;44579;51.672;7.834;2023-09-19T10:14:37;19.50;78.00
58809;DHT22;44579;51.672;7.834;2023-09-19T10:17:05;19.60;78.80
58809;DHT22;44579;51.672;7.834;2023-09-19T10:19:46;19.60;78.70
58809;DHT22;44579;51.672;7.834;2023-09-19T10:22:24;19.70;77.90
58809;DHT22;44579;51.672;7.834;2023-09-19T10:24:57;19.80;78.00
58809;DHT22;44579;51.672;7.834;2023-09-19T10:27:29;19.90;77.70
58809;DHT22;44579;51.672;7.834;2023-09-19T10:30:09;19.90;77.90
58809;DHT22;44579;51.672;7.834;2023-09-19T10:32:39;20.00;77.90
58809;DHT22;44579;51.672;7.834;2023-09-19T10:35:08;20.10;77.80
58809;DHT22;44579;51.672;7.834;2023-09-19T10:37:35;20.20;77.60
58809;DHT22;44579;51.672;7.834;2023-09-19T10:40:06;20.20;77.50
58809;DHT22;44579;51.672;7.834;2023-09-19T10:42:40;20.20;77.60
58809;DHT22;44579;51.672;7.834;2023-09-19T10:45:09;20.30;77.80
58809;DHT22;44579;51.672;7.834;2023-09-19T10:47:40;20.20;77.90
58809;DHT22;44579;51.672;7.834;2023-09-19T10:50:07;20.20;77.30
58809;DHT22;44579;51.672;7.834;2023-09-19T10:52:40;20.10;77.60
58809;DHT22;44579;51.672;7.834;2023-09-19T10:55:08;20.10;77.90
58809;DHT22;44579;51.672;7.834;2023-09-19T10:57:44;20.20;77.20
58809;DHT22;44579;51.672;7.834;2023-09-19T11:00:18;20.20;76.80
58809;DHT22;44579;51.672;7.834;2023-09-19T11:03:16;20.30;76.50
58809;DHT22;44579;51.672;7.834;2023-09-19T11:09:03;20.30;76.30
58809;DHT22;44579;51.672;7.834;2023-09-19T11:11:46;20.30;76.70
58809;DHT22;44579;51.672;7.834;2023-09-19T11:30:37;20.60;77.20
58809;DHT22;44579;51.672;7.834;2023-09-19T11:36:15;20.60;76.60
58809;DHT22;44579;51.672;7.834;2023-09-19T11:46:27;20.60;74.60
58809;DHT22;44579;51.672;7.834;2023-09-19T11:49:08;20.60;74.10
58809;DHT22;44579;51.672;7.834;2023-09-19T11:51:43;20.60;74.00
58809;DHT22;44579;51.672;7.834;2023-09-19T11:54:13;20.80;73.80
58809;DHT22;44579;51.672;7.834;2023-09-19T11:56:47;20.80;73.60
58809;DHT22;44579;51.672;7.834;2023-09-19T11:59:25;20.80;73.30
58809;DHT22;44579;51.672;7.834;2023-09-19T12:02:06;20.70;72.90
58809;DHT22;44579;51.672;7.834;2023-09-19T12:04:43;20.70;72.30
58809;DHT22;44579;51.672;7.834;2023-09-19T12:07:13;20.60;72.70
58809;DHT22;44579;51.672;7.834;2023-09-19T12:10:04;20.50;73.10
58809;DHT22;44579;51.672;7.834;2023-09-19T12:12:31;20.50;72.70
58809;DHT22;44579;51.672;7.834;2023-09-19T12:15:01;20.40;72.80
58809;DHT22;44579;51.672;7.834;2023-09-19T12:17:43;20.40;72.20
58809;DHT22;44579;51.672;7.834;2023-09-19T12:20:24;20.50;72.80
58809;DHT22;44579;51.672;7.834;2023-09-19T12:23:13;20.50;71.40
58809;DHT22;44579;51.672;7.834;2023-09-19T12:26:03;20.60;71.00
58809;DHT22;44579;51.672;7.834;2023-09-19T12:28:41;20.70;72.30
58809;DHT22;44579;51.672;7.834;2023-09-19T12:31:11;20.80;71.40
58809;DHT22;44579;51.672;7.834;2023-09-19T12:33:39;20.90;71.40
58809;DHT22;44579;51.672;7.834;2023-09-19T12:36:23;20.80;71.10
58809;DHT22;44579;51.672;7.834;2023-09-19T12:38:52;20.90;70.50
58809;DHT22;44579;51.672;7.834;2023-09-19T12:41:20;20.90;71.60
58809;DHT22;44579;51.672;7.834;2023-09-19T12:43:48;20.80;70.20
58809;DHT22;44579;51.672;7.834;2023-09-19T12:46:20;20.80;70.00
58809;DHT22;44579;51.672;7.834;2023-09-19T12:49:17;20.80;70.60
58809;DHT22;44579;51.672;7.834;2023-09-19T12:51:48;20.90;70.20
58809;DHT22;44579;51.672;7.834;2023-09-19T12:54:16;20.90;69.60
58809;DHT22;44579;51.672;7.834;2023-09-19T12:56:44;21.00;69.50
58809;DHT22;44579;51.672;7.834;2023-09-19T12:59:15;21.10;69.10
58809;DHT22;44579;51.672;7.834;2023-09-19T13:01:43;21.10;68.60
58809;DHT22;44579;51.672;7.834;2023-09-19T13:04:15;21.00;68.50
58809;DHT22;44579;51.672;7.834;2023-09-19T13:06:48;21.00;68.60
58809;DHT22;44579;51.672;7.834;2023-09-19T13:09:17;21.00;68.70
58809;DHT22;44579;51.672;7.834;2023-09-19T13:11:44;20.90;68.40
58809;DHT22;44579;51.672;7.834;2023-09-19T13:14:18;20.90;68.10
58809;DHT22;44579;51.672;7.834;2023-09-19T13:19:51;20.90;68.60
58809;DHT22;44579;51.672;7.834;2023-09-19T13:22:41;21.00;67.80
58809;DHT22;44579;51.672;7.834;2023-09-19T13:25:13;21.00;67.00
58809;DHT22;44579;51.672;7.834;2023-09-19T13:27:42;21.00;67.30
58809;DHT22;44579;51.672;7.834;2023-09-19T13:30:14;21.00;67.10
58809;DHT22;44579;51.672;7.834;2023-09-19T13:32:42;20.90;67.00
58809;DHT22;44579;51.672;7.834;2023-09-19T13:35:10;21.00;66.80
58809;DHT22;44579;51.672;7.834;2023-09-19T13:37:39;20.90;66.40
58809;DHT22;44579;51.672;7.834;2023-09-19T13:40:10;20.90;66.30
58809;DHT22;44579;51.672;7.834;2023-09-19T13:42:38;20.90;66.20
58809;DHT22;44579;51.672;7.834;2023-09-19T13:45:07;20.90;66.10
58809;DHT22;44579;51.672;7.834;2023-09-19T13:47:34;20.90;65.50
58809;DHT22;44579;51.672;7.834;2023-09-19T13:50:05;20.90;65.30
58809;DHT22;44579;51.672;7.834;2023-09-19T13:52:33;20.90;65.10
58809;DHT22;44579;51.672;7.834;2023-09-19T13:55:00;21.00;65.00
58809;DHT22;44579;51.672;7.834;2023-09-19T13:57:27;21.00;64.90
58809;DHT22;44579;51.672;7.834;2023-09-19T13:59:56;21.00;64.70
58809;DHT22;44579;51.672;7.834;2023-09-19T14:02:23;21.10;64.30
58809;DHT22;44579;51.672;7.834;2023-09-19T14:04:53;21.10;64.00
58809;DHT22;44579;51.672;7.834;2023-09-19T14:07:22;21.10;63.70
58809;DHT22;44579;51.672;7.834;2023-09-19T14:09:48;21.10;63.70
58809;DHT22;44579;51.672;7.834;2023-09-19T14:12:15;21.20;63.70
58809;DHT22;44579;51.672;7.834;2023-09-19T14:14:42;21.20;63.50
58809;DHT22;44579;51.672;7.834;2023-09-19T14:17:09;21.20;63.70
58809;DHT22;44579;51.672;7.834;2023-09-19T14:19:37;21.20;63.40
58809;DHT22;44579;51.672;7.834;2023-09-19T14:22:04;21.20;63.40
58809;DHT22;44579;51.672;7.834;2023-09-19T14:24:35;21.10;63.30
58809;DHT22;44579;51.672;7.834;2023-09-19T14:27:02;21.10;63.10
58809;DHT22;44579;51.672;7.834;2023-09-19T14:29:30;21.10;63.30
58809;DHT22;44579;51.672;7.834;2023-09-19T14:31:58;21.10;63.40
58809;DHT22;44579;51.672;7.834;2023-09-19T14:34:28;21.10;63.20
58809;DHT22;44579;51.672;7.834;2023-09-19T14:36:55;21.10;63.00
58809;DHT22;44579;51.672;7.834;2023-09-19T14:39:24;21.10;62.90
58809;DHT22;44579;51.672;7.834;2023-09-19T14:41:51;21.10;62.50
58809;DHT22;44579;51.672;7.834;2023-09-19T14:44:18;21.10;62.60
58809;DHT22;44579;51.672;7.834;2023-09-19T14:46:46;21.10;62.60
58809;DHT22;44579;51.672;7.834;2023-09-19T14:49:13;21.10;62.40
58809;DHT22;44579;51.672;7.834;2023-09-19T14:51:42;21.20;62.60
58809;DHT22;44579;51.672;7.834;2023-09-19T14:54:14;21.20;62.10
58809;DHT22;44579;51.672;7.834;2023-09-19T14:56:44;21.20;62.30
58809;DHT22;44579;51.672;7.834;2023-09-19T14:59:11;21.20;62.30
58809;DHT22;44579;51.672;7.834;2023-09-19T15:01:39;21.20;62.40
58809;DHT22;44579;51.672;7.834;2023-09-19T15:04:07;21.20;62.50
58809;DHT22;44579;51.672;7.834;2023-09-19T15:06:35;21.10;62.40
58809;DHT22;44579;51.672;7.834;2023-09-19T15:09:02;21.10;62.40
58809;DHT22;44579;51.672;7.834;2023-09-19T15:11:31;21.10;62.40
58809;DHT22;44579;51.672;7.834;2023-09-19T15:13:58;21.20;62.30
58809;DHT22;44579;51.672;7.834;2023-09-19T15:16:26;21.20;62.10
58809;DHT22;44579;51.672;7.834;2023-09-19T15:18:54;21.30;62.00
58809;DHT22;44579;51.672;7.834;2023-09-19T15:21:22;21.20;62.00
58809;DHT22;44579;51.672;7.834;2023-09-19T15:23:50;21.20;62.00
58809;DHT22;44579;51.672;7.834;2023-09-19T15:26:17;21.20;62.00
58809;DHT22;44579;51.672;7.834;2023-09-19T15:28:47;21.20;62.00
58809;DHT22;44579;51.672;7.834;2023-09-19T15:31:15;21.20;61.80
58809;DHT22;44579;51.672;7.834;2023-09-19T15:33:42;21.20;61.70
58809;DHT22;44579;51.672;7.834;2023-09-19T15:36:11;21.10;61.60
58809;DHT22;44579;51.672;7.834;2023-09-19T15:38:57;21.10;61.70
58809;DHT22;44579;51.672;7.834;2023-09-19T15:41:25;21.10;61.60
58809;DHT22;44579;51.672;7.834;2023-09-19T15:43:54;21.00;61.70
58809;DHT22;44579;51.672;7.834;2023-09-19T15:46:21;21.00;61.70
58809;DHT22;44579;51.672;7.834;2023-09-19T15:48:48;21.00;61.80
58809;DHT22;44579;51.672;7.834;2023-09-19T15:51:16;21.00;61.90
58809;DHT22;44579;51.672;7.834;2023-09-19T15:53:49;20.90;62.20
58809;DHT22;44579;51.672;7.834;2023-09-19T15:56:17;20.90;62.10
58809;DHT22;44579;51.672;7.834;2023-09-19T15:58:45;20.90;62.10
58809;DHT22;44579;51.672;7.834;2023-09-19T16:01:13;20.80;61.70
58809;DHT22;44579;51.672;7.834;2023-09-19T16:03:51;20.80;61.80
58809;DHT22;44579;51.672;7.834;2023-09-19T16:06:21;20.80;61.80
58809;DHT22;44579;51.672;7.834;2023-09-19T16:08:52;20.80;61.80
58809;DHT22;44579;51.672;7.834;2023-09-19T16:11:19;20.80;61.80
58809;DHT22;44579;51.672;7.834;2023-09-19T16:13:48;20.80;61.70
58809;DHT22;44579;51.672;7.834;2023-09-19T16:16:18;20.80;61.40
58809;DHT22;44579;51.672;7.834;2023-09-19T16:18:55;20.80;61.50
58809;DHT22;44579;51.672;7.834;2023-09-19T16:21:25;20.80;61.40
58809;DHT22;44579;51.672;7.834;2023-09-19T16:23:55;20.70;61.50
58809;DHT22;44579;51.672;7.834;2023-09-19T16:26:23;20.70;61.60
58809;DHT22;44579;51.672;7.834;2023-09-19T16:28:53;20.60;61.50
58809;DHT22;44579;51.672;7.834;2023-09-19T16:31:20;20.60;61.60
58809;DHT22;44579;51.672;7.834;2023-09-19T16:34:03;20.50;61.60
58809;DHT22;44579;51.672;7.834;2023-09-19T16:37:27;20.50;61.90